Time;durP1;ratioP1;P1;durP2;ratioP2;P2;SDS_P1;SDS_P2;PMS_P1;PMS_P2;Temp;Humidity;BMP_temperature;BMP_pressure;BME280_temperature;BME280_humidity;BME280_pressure;Samples;Min_cycle;Max_cycle;Signal;HPM_P1;HPM_P2
2023/08/28 00:00:06;;;;;;;14.60;10.77;;;;;;;-148.88;100.00;-17125.47;5039941;28;20439;-85
2023/08/28 00:02:31;;;;;;;12.85;10.52;;;;;;;-148.88;100.00;-17125.47;5040073;28;20565;-84
2023/08/28 00:04:57;;;;;;;12.07;10.15;;;;;;;-148.88;100.00;-17125.47;5037581;28;20028;-84
2023/08/28 00:07:22;;;;;;;11.80;10.60;;;;;;;-148.88;100.00;-17125.47;5036224;28;20148;-85
2023/08/28 00:09:48;;;;;;;11.25;10.05;;;;;;;-148.88;100.00;-17125.47;5039297;28;20410;-86
2023/08/28 00:12:13;;;;;;;12.27;10.93;;;;;;;-148.88;100.00;-17125.47;5038225;28;20021;-85
2023/08/28 00:14:39;;;;;;;13.55;11.40;;;;;;;-148.88;100.00;-17125.47;5037885;28;20068;-86
2023/08/28 00:17:07;;;;;;;13.32;11.32;;;;;;;-148.88;100.00;-17125.47;5038724;28;20025;-84
2023/08/28 00:19:33;;;;;;;12.52;11.23;;;;;;;-148.88;100.00;-17125.47;5041093;28;20392;-85
2023/08/28 00:21:59;;;;;;;13.48;11.25;;;;;;;-148.88;100.00;-17125.47;5042285;28;20026;-85
2023/08/28 00:24:25;;;;;;;13.30;11.50;;;;;;;-148.88;100.00;-17125.47;5042209;28;20046;-85
2023/08/28 00:26:50;;;;;;;13.05;11.65;;;;;;;-148.88;100.00;-17125.47;5040449;28;20076;-83
2023/08/28 00:29:16;;;;;;;15.13;12.98;;;;;;;-148.88;100.00;-17125.47;5040456;28;20080;-84
2023/08/28 00:31:45;;;;;;;14.18;12.52;;;;;;;-148.88;100.00;-17125.47;5041785;28;20182;-85
2023/08/28 00:34:10;;;;;;;15.25;13.50;;;;;;;-148.88;100.00;-17125.47;5040081;28;20014;-85
2023/08/28 00:36:35;;;;;;;14.15;12.65;;;;;;;-148.88;100.00;-17125.47;5041442;28;20025;-82
2023/08/28 00:39:01;;;;;;;14.35;12.57;;;;;;;-148.88;100.00;-17125.47;5040452;28;20040;-85
2023/08/28 00:41:26;;;;;;;15.50;13.30;;;;;;;-148.88;100.00;-17125.47;5040849;28;20116;-85
2023/08/28 00:43:51;;;;;;;15.82;12.05;;;;;;;-148.88;100.00;-17125.47;5035536;28;20037;-84
2023/08/28 00:46:17;;;;;;;14.63;12.73;;;;;;;-148.88;100.00;-17125.47;5037270;28;20052;-85
2023/08/28 00:48:42;;;;;;;15.75;13.15;;;;;;;-148.88;100.00;-17125.47;5036978;28;20061;-83
2023/08/28 00:51:08;;;;;;;14.60;13.15;;;;;;;-148.88;100.00;-17125.47;5038125;28;20116;-85
2023/08/28 00:53:35;;;;;;;14.57;12.60;;;;;;;-148.88;100.00;-17125.47;5038710;28;20026;-84
2023/08/28 00:56:01;;;;;;;14.63;12.85;;;;;;;-148.88;100.00;-17125.47;5039955;28;20395;-85
2023/08/28 00:58:26;;;;;;;15.77;13.02;;;;;;;-148.88;100.00;-17125.47;5039889;28;20056;-86
2023/08/28 01:00:52;;;;;;;16.30;13.07;;;;;;;-148.88;100.00;-17125.47;5038676;28;20083;-84
2023/08/28 01:03:17;;;;;;;15.18;12.98;;;;;;;-148.88;100.00;-17125.47;5038056;28;20108;-86
2023/08/28 01:05:55;;;;;;;14.98;13.32;;;;;;;-148.88;100.00;-17125.47;5039978;28;20036;-85
2023/08/28 01:09:08;;;;;;;15.35;13.48;;;;;;;-148.88;100.00;-17125.47;5038943;28;20036;-86
2023/08/28 01:12:17;;;;;;;16.17;13.75;;;;;;;-148.88;100.00;-17125.47;5024102;28;20109;-85
2023/08/28 01:14:55;;;;;;;16.05;13.73;;;;;;;-148.88;100.00;-17125.47;5039944;28;20124;-85
2023/08/28 01:17:23;;;;;;;16.92;14.88;;;;;;;-148.88;100.00;-17125.47;5038102;28;20384;-83
2023/08/28 01:19:50;;;;;;;15.38;13.73;;;;;;;-148.88;100.00;-17125.47;5037708;28;20074;-85
2023/08/28 01:22:34;;;;;;;16.77;13.93;;;;;;;-148.88;100.00;-17125.47;5039847;28;20029;-85
2023/08/28 01:25:16;;;;;;;16.38;13.75;;;;;;;-148.88;100.00;-17125.47;5039425;28;20022;-85
2023/08/28 01:27:42;;;;;;;17.27;14.30;;;;;;;-148.88;100.00;-17125.47;5040378;28;20048;-84
2023/08/28 01:30:13;;;;;;;15.90;14.20;;;;;;;-148.88;100.00;-17125.47;5037922;28;20079;-86
2023/08/28 01:32:40;;;;;;;17.13;15.18;;;;;;;-148.88;100.00;-17125.47;5039278;28;20023;-86
2023/08/28 01:35:12;;;;;;;15.98;14.35;;;;;;;-148.88;100.00;-17125.47;5040001;28;20017;-85
2023/08/28 01:37:44;;;;;;;17.45;15.45;;;;;;;-148.88;100.00;-17125.47;5040030;28;20025;-86
2023/08/28 01:40:12;;;;;;;18.38;15.10;;;;;;;-148.88;100.00;-17125.47;5039072;28;20101;-85
2023/08/28 01:42:38;;;;;;;16.45;14.73;;;;;;;-148.88;100.00;-17125.47;5039590;28;20488;-85
2023/08/28 01:45:05;;;;;;;20.65;15.73;;;;;;;-148.88;100.00;-17125.47;5038725;28;20056;-83
2023/08/28 01:47:30;;;;;;;19.02;15.57;;;;;;;-148.88;100.00;-17125.47;5038506;28;20060;-85
2023/08/28 01:49:56;;;;;;;17.85;15.68;;;;;;;-148.88;100.00;-17125.47;5037604;28;20025;-85
2023/08/28 01:52:21;;;;;;;16.48;14.63;;;;;;;-148.88;100.00;-17125.47;5038833;28;20040;-83
2023/08/28 01:54:47;;;;;;;18.50;15.15;;;;;;;-148.88;100.00;-17125.47;5039172;28;20018;-85
2023/08/28 01:57:12;;;;;;;18.00;15.45;;;;;;;-148.88;100.00;-17125.47;5036359;28;20141;-84
2023/08/28 01:59:37;;;;;;;17.50;15.57;;;;;;;-148.88;100.00;-17125.47;5035105;28;20025;-85
2023/08/28 02:02:03;;;;;;;16.98;15.18;;;;;;;-148.88;100.00;-17125.47;5037373;28;20029;-86
2023/08/28 02:04:28;;;;;;;17.52;15.15;;;;;;;-148.88;100.00;-17125.47;5036661;28;20429;-85
2023/08/28 02:06:54;;;;;;;17.88;15.80;;;;;;;-148.88;100.00;-17125.47;5035789;28;20025;-84
2023/08/28 02:09:19;;;;;;;17.52;15.43;;;;;;;-148.88;100.00;-17125.47;5035950;28;20029;-85
2023/08/28 02:11:45;;;;;;;16.50;14.80;;;;;;;-148.88;100.00;-17125.47;5036350;28;20026;-84
2023/08/28 02:14:10;;;;;;;16.90;15.20;;;;;;;-148.88;100.00;-17125.47;5036920;28;20025;-85
2023/08/28 02:16:38;;;;;;;16.65;14.85;;;;;;;-148.88;100.00;-17125.47;5035892;28;20048;-86
2023/08/28 02:19:04;;;;;;;16.35;14.73;;;;;;;-148.88;100.00;-17125.47;5037355;28;20040;-85
2023/08/28 02:21:29;;;;;;;16.23;14.50;;;;;;;-148.88;100.00;-17125.47;5037859;28;20366;-84
2023/08/28 02:23:54;;;;;;;17.67;14.52;;;;;;;-148.88;100.00;-17125.47;5037525;28;20200;-86
2023/08/28 02:26:20;;;;;;;16.38;14.63;;;;;;;-148.88;100.00;-17125.47;5038189;28;20427;-86
2023/08/28 02:28:45;;;;;;;16.98;14.90;;;;;;;-148.88;100.00;-17125.47;5038059;28;20021;-84
2023/08/28 02:31:10;;;;;;;17.95;16.05;;;;;;;-148.88;100.00;-17125.47;5036447;28;20025;-85
2023/08/28 02:33:36;;;;;;;17.25;14.60;;;;;;;-148.88;100.00;-17125.47;5036863;28;20022;-85
2023/08/28 02:36:02;;;;;;;19.27;16.40;;;;;;;-148.88;100.00;-17125.47;5034019;28;20034;-85
2023/08/28 02:38:27;;;;;;;18.65;16.52;;;;;;;-148.88;100.00;-17125.47;5035767;28;20545;-84
2023/08/28 02:40:53;;;;;;;20.05;17.92;;;;;;;-148.88;100.00;-17125.47;5036844;28;20104;-84
2023/08/28 02:43:18;;;;;;;21.42;17.02;;;;;;;-148.88;100.00;-17125.47;5035764;28;20115;-85
2023/08/28 02:45:43;;;;;;;21.25;17.45;;;;;;;-148.88;100.00;-17125.47;5035992;28;20515;-86
2023/08/28 02:48:09;;;;;;;19.83;17.58;;;;;;;-148.88;100.00;-17125.47;5037761;28;20484;-83
2023/08/28 02:50:35;;;;;;;21.73;17.92;;;;;;;-148.88;100.00;-17125.47;5037726;28;20477;-85
2023/08/28 02:53:00;;;;;;;20.27;18.05;;;;;;;-148.88;100.00;-17125.47;5037836;28;20048;-85
2023/08/28 02:55:26;;;;;;;23.23;18.90;;;;;;;-148.88;100.00;-17125.47;5038531;28;20533;-84
2023/08/28 02:57:51;;;;;;;21.88;18.70;;;;;;;-148.88;100.00;-17125.47;5038591;28;20036;-84
2023/08/28 03:00:18;;;;;;;22.13;19.48;;;;;;;-148.88;100.00;-17125.47;5037452;28;20112;-84
2023/08/28 03:02:44;;;;;;;21.38;19.00;;;;;;;-148.88;100.00;-17125.47;5037562;28;20022;-85
2023/08/28 03:05:10;;;;;;;26.38;20.10;;;;;;;-148.88;100.00;-17125.47;5039134;28;20025;-84
2023/08/28 03:07:37;;;;;;;22.70;19.77;;;;;;;-148.88;100.00;-17125.47;5036844;28;20056;-84
2023/08/28 03:10:03;;;;;;;21.70;19.40;;;;;;;-148.88;100.00;-17125.47;5036436;28;20041;-84
2023/08/28 03:12:28;;;;;;;22.73;20.33;;;;;;;-148.88;100.00;-17125.47;5033185;28;20026;-83
2023/08/28 03:14:53;;;;;;;21.02;18.83;;;;;;;-148.88;100.00;-17125.47;5033914;28;20496;-84
2023/08/28 03:17:19;;;;;;;20.88;18.45;;;;;;;-148.88;100.00;-17125.47;5035338;28;20128;-83
2023/08/28 03:19:44;;;;;;;22.88;19.17;;;;;;;-148.88;100.00;-17125.47;5035515;28;20021;-84
2023/08/28 03:22:09;;;;;;;20.80;17.15;;;;;;;-148.88;100.00;-17125.47;5039534;28;20036;-83
2023/08/28 03:24:35;;;;;;;19.55;17.45;;;;;;;-148.88;100.00;-17125.47;5037305;28;20116;-84
2023/08/28 03:27:01;;;;;;;22.60;19.02;;;;;;;-148.88;100.00;-17125.47;5038497;28;20057;-85
2023/08/28 03:29:26;;;;;;;24.73;19.98;;;;;;;-148.88;100.00;-17125.47;5037973;28;20022;-83
2023/08/28 03:31:51;;;;;;;19.33;17.20;;;;;;;-148.88;100.00;-17125.47;5035914;28;20504;-84
2023/08/28 03:34:17;;;;;;;21.17;18.73;;;;;;;-148.88;100.00;-17125.47;5034996;28;20377;-83
2023/08/28 03:36:43;;;;;;;21.25;18.95;;;;;;;-148.88;100.00;-17125.47;5044207;28;20029;-81
2023/08/28 03:39:08;;;;;;;22.70;19.70;;;;;;;-148.88;100.00;-17125.47;5046803;28;20053;-81
2023/08/28 03:41:34;;;;;;;22.63;19.38;;;;;;;-148.88;100.00;-17125.47;5045413;28;20025;-84
2023/08/28 03:43:59;;;;;;;25.88;20.27;;;;;;;-148.88;100.00;-17125.47;5040763;28;20056;-83
2023/08/28 03:46:24;;;;;;;24.45;19.13;;;;;;;-148.88;100.00;-17125.47;5040115;28;20120;-85
2023/08/28 03:48:50;;;;;;;22.55;19.67;;;;;;;-148.88;100.00;-17125.47;5034617;28;20044;-83
2023/08/28 03:51:16;;;;;;;22.77;19.75;;;;;;;-148.88;100.00;-17125.47;5036896;28;20021;-84
2023/08/28 03:53:42;;;;;;;23.48;20.77;;;;;;;-148.88;100.00;-17125.47;5038912;28;20017;-85
2023/08/28 03:56:07;;;;;;;23.52;20.13;;;;;;;-148.88;100.00;-17125.47;5041305;28;20060;-82
2023/08/28 03:58:33;;;;;;;24.77;21.05;;;;;;;-148.88;100.00;-17125.47;5042012;28;20025;-85
2023/08/28 04:00:59;;;;;;;24.13;20.65;;;;;;;-148.88;100.00;-17125.47;5042801;28;20089;-84
2023/08/28 04:03:25;;;;;;;24.48;21.77;;;;;;;-148.88;100.00;-17125.47;5040709;28;20060;-85
2023/08/28 04:05:52;;;;;;;25.55;22.15;;;;;;;-148.88;100.00;-17125.47;5039709;28;20032;-84
2023/08/28 04:08:19;;;;;;;24.13;21.23;;;;;;;-148.88;100.00;-17125.47;5039932;28;20409;-85
2023/08/28 04:10:45;;;;;;;28.00;23.00;;;;;;;-148.88;100.00;-17125.47;5036201;28;20029;-84
2023/08/28 04:13:11;;;;;;;25.58;21.80;;;;;;;-148.88;100.00;-17125.47;5036682;28;20025;-84
2023/08/28 04:15:37;;;;;;;24.80;21.23;;;;;;;-148.88;100.00;-17125.47;5037490;28;20535;-85
2023/08/28 04:18:04;;;;;;;24.10;21.23;;;;;;;-148.88;100.00;-17125.47;5037871;28;20029;-85
2023/08/28 04:20:30;;;;;;;24.65;21.17;;;;;;;-148.88;100.00;-17125.47;5036297;28;20507;-85
2023/08/28 04:22:56;;;;;;;24.52;20.58;;;;;;;-148.88;100.00;-17125.47;5037560;28;20503;-84
2023/08/28 04:25:21;;;;;;;27.55;22.85;;;;;;;-148.88;100.00;-17125.47;5038125;28;20022;-83
2023/08/28 04:27:47;;;;;;;28.33;23.17;;;;;;;-148.88;100.00;-17125.47;5035708;28;20060;-84
2023/08/28 04:30:12;;;;;;;29.73;24.23;;;;;;;-148.88;100.00;-17125.47;5037213;28;20021;-84
2023/08/28 04:32:38;;;;;;;32.30;23.75;;;;;;;-148.88;100.00;-17125.47;5035881;28;20052;-85
2023/08/28 04:35:03;;;;;;;29.70;25.30;;;;;;;-148.88;100.00;-17125.47;5036466;28;20112;-84
2023/08/28 04:37:29;;;;;;;27.42;23.48;;;;;;;-148.88;100.00;-17125.47;5037765;28;20032;-82
2023/08/28 04:39:54;;;;;;;28.55;23.85;;;;;;;-148.88;100.00;-17125.47;5037891;28;20048;-85
2023/08/28 04:42:20;;;;;;;25.80;22.52;;;;;;;-148.88;100.00;-17125.47;5035336;28;20025;-85
2023/08/28 04:44:45;;;;;;;25.92;22.15;;;;;;;-148.88;100.00;-17125.47;5035080;28;20026;-86
2023/08/28 04:47:13;;;;;;;26.85;23.02;;;;;;;-148.88;100.00;-17125.47;5036089;28;20034;-85
2023/08/28 04:49:38;;;;;;;25.77;22.13;;;;;;;-148.88;100.00;-17125.47;5035713;28;20045;-85
2023/08/28 04:52:04;;;;;;;27.77;24.13;;;;;;;-148.88;100.00;-17125.47;5035704;28;20052;-84
2023/08/28 04:54:29;;;;;;;25.52;22.30;;;;;;;-148.88;100.00;-17125.47;5037258;28;20025;-86
2023/08/28 04:56:57;;;;;;;28.75;24.60;;;;;;;-148.88;100.00;-17125.47;5036627;28;20017;-86
2023/08/28 04:59:25;;;;;;;27.10;22.95;;;;;;;-148.88;100.00;-17125.47;5037524;28;20064;-85
2023/08/28 05:01:50;;;;;;;26.77;22.23;;;;;;;-148.88;100.00;-17125.47;5037814;28;20400;-84
2023/08/28 05:04:22;;;;;;;24.33;21.65;;;;;;;-148.88;100.00;-17125.47;5036742;28;20025;-84
2023/08/28 05:06:51;;;;;;;25.55;22.23;;;;;;;-148.88;100.00;-17125.47;5035507;28;20032;-84
2023/08/28 05:09:19;;;;;;;24.50;21.67;;;;;;;-148.88;100.00;-17125.47;5035667;28;20108;-84
2023/08/28 05:11:45;;;;;;;26.20;22.10;;;;;;;-148.88;100.00;-17125.47;5037870;28;20530;-86
2023/08/28 05:14:11;;;;;;;29.08;23.45;;;;;;;-148.88;100.00;-17125.47;5036443;28;20108;-85
2023/08/28 05:16:36;;;;;;;31.02;24.85;;;;;;;-148.88;100.00;-17125.47;5036494;28;20022;-84
2023/08/28 05:19:02;;;;;;;28.80;23.52;;;;;;;-148.88;100.00;-17125.47;5035089;28;20065;-84
2023/08/28 05:21:27;;;;;;;28.85;23.77;;;;;;;-148.88;100.00;-17125.47;5035221;28;20025;-85
2023/08/28 05:23:53;;;;;;;28.80;25.70;;;;;;;-148.88;100.00;-17125.47;5035362;28;20028;-85
2023/08/28 05:26:18;;;;;;;30.42;24.83;;;;;;;-148.88;100.00;-17125.47;5037434;28;20029;-85
2023/08/28 05:28:45;;;;;;;32.72;26.52;;;;;;;-148.88;100.00;-17125.47;5035856;28;20112;-85
2023/08/28 05:31:10;;;;;;;32.30;26.25;;;;;;;-148.88;100.00;-17125.47;5035630;28;20026;-85
2023/08/28 05:33:36;;;;;;;36.95;28.45;;;;;;;-148.88;100.00;-17125.47;5035433;28;20021;-84
2023/08/28 05:36:01;;;;;;;34.25;28.75;;;;;;;-148.88;100.00;-17125.47;5037603;28;20392;-84
2023/08/28 05:38:29;;;;;;;35.05;28.30;;;;;;;-148.88;100.00;-17125.47;5037400;28;20100;-85
2023/08/28 05:40:55;;;;;;;39.80;30.85;;;;;;;-148.88;100.00;-17125.47;5035252;28;20532;-84
2023/08/28 05:43:20;;;;;;;38.92;31.40;;;;;;;-148.88;100.00;-17125.47;5035772;28;20057;-84
2023/08/28 05:45:46;;;;;;;42.92;33.70;;;;;;;-148.88;100.00;-17125.47;5027154;28;20442;-84
2023/08/28 05:48:12;;;;;;;43.42;35.30;;;;;;;-148.88;100.00;-17125.47;5036868;28;20026;-84
2023/08/28 05:50:39;;;;;;;44.38;34.85;;;;;;;-148.88;100.00;-17125.47;5035950;28;20117;-83
2023/08/28 05:53:05;;;;;;;46.33;36.13;;;;;;;-148.88;100.00;-17125.47;5037953;28;20114;-84
2023/08/28 05:55:30;;;;;;;46.70;36.00;;;;;;;-148.88;100.00;-17125.47;5037874;28;20489;-84
2023/08/28 05:57:56;;;;;;;50.97;37.35;;;;;;;-148.88;100.00;-17125.47;5036362;28;20021;-85
2023/08/28 06:00:22;;;;;;;48.88;38.00;;;;;;;-148.88;100.00;-17125.47;5038451;28;20025;-83
2023/08/28 06:02:47;;;;;;;49.22;37.72;;;;;;;-148.88;100.00;-17125.47;5037333;28;20053;-85
2023/08/28 06:05:13;;;;;;;48.95;38.97;;;;;;;-148.88;100.00;-17125.47;5035508;28;20049;-84
2023/08/28 06:07:38;;;;;;;49.25;38.42;;;;;;;-148.88;100.00;-17125.47;5035609;28;20392;-85
2023/08/28 06:10:19;;;;;;;;;;;;;;;;;;;;;
2023/08/28 06:12:46;;;;;;;55.28;39.38;;;;;;;-148.88;100.00;-17125.47;5036196;28;20035;-84
2023/08/28 06:15:17;;;;;;;55.20;41.08;;;;;;;-148.88;100.00;-17125.47;5035689;28;20523;-83
2023/08/28 06:17:43;;;;;;;51.88;37.15;;;;;;;-148.88;100.00;-17125.47;5033750;28;20044;-84
2023/08/28 06:20:10;;;;;;;49.53;36.28;;;;;;;-148.88;100.00;-17125.47;5035686;28;20108;-85
2023/08/28 06:22:38;;;;;;;47.00;36.60;;;;;;;-148.88;100.00;-17125.47;5034950;28;20057;-84
2023/08/28 06:25:04;;;;;;;46.17;35.38;;;;;;;-148.88;100.00;-17125.47;5035172;28;20028;-83
2023/08/28 06:27:30;;;;;;;48.60;35.63;;;;;;;-148.88;100.00;-17125.47;5036481;28;20440;-83
2023/08/28 06:29:56;;;;;;;45.88;34.20;;;;;;;-148.88;100.00;-17125.47;5036648;28;20025;-85
2023/08/28 06:32:33;;;;;;;43.17;34.00;;;;;;;-148.88;100.00;-17125.47;5035328;28;20024;-82
2023/08/28 06:34:59;;;;;;;46.50;35.08;;;;;;;-148.88;100.00;-17125.47;5036569;28;20023;-84
2023/08/28 06:37:25;;;;;;;41.35;31.63;;;;;;;-148.88;100.00;-17125.47;5036280;28;20029;-85
2023/08/28 06:39:52;;;;;;;45.85;33.40;;;;;;;-148.88;100.00;-17125.47;5035024;28;20048;-86
2023/08/28 06:42:17;;;;;;;40.20;32.38;;;;;;;-148.88;100.00;-17125.47;5032424;28;20029;-85
2023/08/28 06:44:43;;;;;;;40.30;30.88;;;;;;;-148.88;100.00;-17125.47;5032677;28;20047;-86
2023/08/28 06:47:09;;;;;;;40.95;31.48;;;;;;;-148.88;100.00;-17125.47;5033841;28;20500;-85
2023/08/28 06:49:35;;;;;;;40.78;31.77;;;;;;;-148.88;100.00;-17125.47;5032686;28;20026;-87
2023/08/28 06:52:05;;;;;;;36.17;28.88;;;;;;;-148.88;100.00;-17125.47;5033311;28;20052;-85
2023/08/28 06:54:34;;;;;;;39.15;29.75;;;;;;;-148.88;100.00;-17125.47;5033132;28;20033;-85
2023/08/28 06:57:00;;;;;;;32.78;27.35;;;;;;;-148.88;100.00;-17125.47;5033858;28;20021;-88
2023/08/28 06:59:26;;;;;;;36.70;29.30;;;;;;;-148.88;100.00;-17125.47;5028861;28;20515;-85
2023/08/28 07:01:52;;;;;;;35.08;28.80;;;;;;;-148.88;100.00;-17125.47;5053649;28;20101;-86
2023/08/28 07:04:18;;;;;;;33.22;28.02;;;;;;;-148.88;100.00;-17125.47;5053129;28;20033;-87
2023/08/28 07:06:44;;;;;;;34.20;27.13;;;;;;;-148.88;100.00;-17125.47;5033300;28;20120;-86
2023/08/28 07:09:09;;;;;;;30.42;25.10;;;;;;;-148.88;100.00;-17125.47;5033937;28;20373;-87
2023/08/28 07:11:35;;;;;;;32.67;26.25;;;;;;;-148.88;100.00;-17125.47;5033867;28;20021;-86
2023/08/28 07:14:01;;;;;;;33.03;26.15;;;;;;;-148.88;100.00;-17125.47;5032855;28;20409;-86
2023/08/28 07:16:27;;;;;;;30.55;24.75;;;;;;;-148.88;100.00;-17125.47;5033796;28;20030;-86
2023/08/28 07:18:53;;;;;;;35.75;26.02;;;;;;;-148.88;100.00;-17125.47;5033007;28;20033;-87
2023/08/28 07:21:18;;;;;;;30.30;25.48;;;;;;;-148.88;100.00;-17125.47;5034562;28;20026;-86
2023/08/28 07:23:44;;;;;;;32.50;26.55;;;;;;;-148.88;100.00;-17125.47;5033214;28;20021;-87
2023/08/28 07:26:09;;;;;;;32.90;23.63;;;;;;;-148.88;100.00;-17125.47;5036788;28;20031;-86
2023/08/28 07:28:35;;;;;;;30.42;23.05;;;;;;;-148.88;100.00;-17125.47;5038759;28;20420;-87
2023/08/28 07:31:03;;;;;;;28.48;23.95;;;;;;;-148.88;100.00;-17125.47;5038093;28;20060;-88
2023/08/28 07:33:29;;;;;;;29.50;24.33;;;;;;;-148.88;100.00;-17125.47;5035524;28;20033;-86
2023/08/28 07:35:55;;;;;;;32.47;25.67;;;;;;;-148.88;100.00;-17125.47;5037221;28;20056;-87
2023/08/28 07:38:43;;;;;;;31.90;24.13;;;;;;;-148.88;100.00;-17125.47;5035529;28;20377;-87
2023/08/28 07:41:46;;;;;;;26.98;22.50;;;;;;;-148.88;100.00;-17125.47;5035500;28;20041;-88
2023/08/28 07:44:25;;;;;;;30.50;22.70;;;;;;;-148.88;100.00;-17125.47;5034628;28;20037;-87
2023/08/28 07:47:05;;;;;;;27.90;22.67;;;;;;;-148.88;100.00;-17125.47;5036846;28;20496;-87
2023/08/28 07:49:31;;;;;;;29.23;24.02;;;;;;;-148.88;100.00;-17125.47;5034880;28;20041;-86
2023/08/28 07:52:43;;;;;;;34.15;26.55;;;;;;;-148.88;100.00;-17125.47;5035241;28;20060;-88
2023/08/28 07:55:32;;;;;;;27.90;23.55;;;;;;;-148.88;100.00;-17125.47;5034410;28;20087;-90
2023/08/28 07:57:57;;;;;;;27.08;22.65;;;;;;;-148.88;100.00;-17125.47;5038162;28;20025;-92
2023/08/28 08:00:23;;;;;;;27.48;23.00;;;;;;;-148.88;100.00;-17125.47;5047145;28;20460;-91
2023/08/28 08:02:51;;;;;;;28.67;22.60;;;;;;;-148.88;100.00;-17125.47;5036206;28;20053;-88
2023/08/28 08:05:19;;;;;;;28.75;22.17;;;;;;;-148.88;100.00;-17125.47;5035772;28;20473;-88
2023/08/28 08:07:46;;;;;;;28.05;22.65;;;;;;;-148.88;100.00;-17125.47;5037221;28;20078;-89
2023/08/28 08:10:14;;;;;;;25.65;21.48;;;;;;;-148.88;100.00;-17125.47;5038444;28;20107;-90
2023/08/28 08:12:40;;;;;;;24.58;20.35;;;;;;;-148.88;100.00;-17125.47;5037561;28;20129;-91
2023/08/28 08:15:07;;;;;;;24.73;20.42;;;;;;;-148.88;100.00;-17125.47;5019545;28;20029;-90
2023/08/28 08:17:53;;;;;;;23.45;20.83;;;;;;;-148.88;100.00;-17125.47;5019982;28;20160;-91
2023/08/28 08:20:20;;;;;;;26.90;20.98;;;;;;;-148.88;100.00;-17125.47;5036864;28;20026;-90
2023/08/28 08:22:46;;;;;;;24.70;20.80;;;;;;;-148.88;100.00;-17125.47;5036283;28;20040;-89
2023/08/28 08:25:12;;;;;;;25.92;20.08;;;;;;;-148.88;100.00;-17125.47;5035575;28;20025;-89
2023/08/28 08:27:39;;;;;;;24.13;19.65;;;;;;;-148.88;100.00;-17125.47;5036568;28;20049;-89
2023/08/28 08:30:07;;;;;;;21.73;18.90;;;;;;;-148.88;100.00;-17125.47;5035573;28;20554;-89
2023/08/28 08:32:32;;;;;;;20.25;17.60;;;;;;;-148.88;100.00;-17125.47;5035186;28;20510;-87
2023/08/28 08:34:59;;;;;;;19.73;17.50;;;;;;;-148.88;100.00;-17125.47;5034739;28;20053;-87
2023/08/28 08:37:26;;;;;;;22.67;18.25;;;;;;;-148.88;100.00;-17125.47;5034082;28;20025;-88
2023/08/28 08:39:52;;;;;;;21.25;17.33;;;;;;;-148.88;100.00;-17125.47;5035080;28;20075;-87
2023/08/28 08:42:19;;;;;;;17.85;15.50;;;;;;;-148.88;100.00;-17125.47;5036029;28;20029;-92
2023/08/28 08:44:45;;;;;;;15.70;13.40;;;;;;;-148.88;100.00;-17125.47;5037528;28;20506;-90
2023/08/28 08:47:11;;;;;;;16.42;14.00;;;;;;;-148.88;100.00;-17125.47;5036625;28;20056;-89
2023/08/28 08:49:40;;;;;;;20.48;16.10;;;;;;;-148.88;100.00;-17125.47;5052640;28;20100;-90
2023/08/28 08:52:08;;;;;;;18.35;15.45;;;;;;;-148.88;100.00;-17125.47;5040574;28;20026;-91
2023/08/28 08:54:40;;;;;;;18.63;13.82;;;;;;;-148.88;100.00;-17125.47;5036227;28;20029;-89
2023/08/28 08:58:00;;;;;;;15.18;13.00;;;;;;;-148.88;100.00;-17125.47;5041265;28;20093;-91
2023/08/28 09:00:26;;;;;;;18.55;14.73;;;;;;;-148.88;100.00;-17125.47;5034504;28;20494;-90
2023/08/28 09:02:53;;;;;;;16.38;12.10;;;;;;;-148.88;100.00;-17125.47;5034362;28;20488;-88
2023/08/28 09:05:19;;;;;;;14.43;11.77;;;;;;;-148.88;100.00;-17125.47;5035991;28;20400;-86
2023/08/28 09:07:46;;;;;;;15.10;12.60;;;;;;;-148.88;100.00;-17125.47;5034686;28;20033;-86
2023/08/28 09:10:20;;;;;;;13.88;11.77;;;;;;;-148.88;100.00;-17125.47;5035577;28;20026;-86
2023/08/28 09:12:47;;;;;;;15.52;12.68;;;;;;;-148.88;100.00;-17125.47;5033987;28;20116;-84
2023/08/28 09:15:14;;;;;;;12.98;10.60;;;;;;;-148.88;100.00;-17125.47;5033622;28;20489;-86
2023/08/28 09:17:41;;;;;;;9.50;7.40;;;;;;;-148.88;100.00;-17125.47;5033956;28;20029;-87
2023/08/28 09:20:19;;;;;;;8.18;7.05;;;;;;;-148.88;100.00;-17125.47;5035088;28;20369;-88
2023/08/28 09:22:54;;;;;;;7.03;6.20;;;;;;;-148.88;100.00;-17125.47;5034638;28;20026;-88
2023/08/28 09:25:24;;;;;;;8.68;5.90;;;;;;;-148.88;100.00;-17125.47;5033753;28;20579;-88
2023/08/28 09:27:52;;;;;;;8.63;6.03;;;;;;;-148.88;100.00;-17125.47;5035025;28;20048;-89
2023/08/28 09:30:37;;;;;;;7.90;5.63;;;;;;;-148.88;100.00;-17125.47;5033523;28;20029;-87
2023/08/28 09:33:05;;;;;;;8.20;6.72;;;;;;;-148.88;100.00;-17125.47;5035693;28;20025;-87
2023/08/28 09:35:41;;;;;;;9.52;5.90;;;;;;;-148.88;100.00;-17125.47;5033575;28;20022;-87
2023/08/28 09:38:07;;;;;;;8.38;5.30;;;;;;;-148.88;100.00;-17125.47;5034192;28;20425;-89
2023/08/28 09:40:36;;;;;;;8.10;6.20;;;;;;;-148.88;100.00;-17125.47;5033338;28;20024;-88
2023/08/28 09:43:11;;;;;;;7.20;6.00;;;;;;;-148.88;100.00;-17125.47;5033360;28;20033;-88
2023/08/28 09:45:37;;;;;;;5.95;5.13;;;;;;;-148.88;100.00;-17125.47;5034254;28;20037;-87
2023/08/28 09:48:11;;;;;;;5.80;4.65;;;;;;;-148.88;100.00;-17125.47;5033842;28;20117;-86
2023/08/28 09:50:43;;;;;;;9.82;6.00;;;;;;;-148.88;100.00;-17125.47;5032913;28;20036;-87
2023/08/28 09:53:12;;;;;;;5.95;4.88;;;;;;;-148.88;100.00;-17125.47;5034839;28;20025;-85
2023/08/28 09:55:46;;;;;;;7.60;5.15;;;;;;;-148.88;100.00;-17125.47;5034139;28;20038;-85
2023/08/28 09:58:29;;;;;;;9.85;5.85;;;;;;;-148.88;100.00;-17125.47;5034148;28;20108;-86
2023/08/28 10:00:56;;;;;;;5.75;4.60;;;;;;;-148.88;100.00;-17125.47;5034331;28;20084;-85
2023/08/28 10:03:24;;;;;;;5.97;4.65;;;;;;;-148.88;100.00;-17125.47;5035466;28;20025;-85
2023/08/28 10:05:53;;;;;;;7.20;4.60;;;;;;;-148.88;100.00;-17125.47;5017195;28;20029;-86
2023/08/28 10:08:19;;;;;;;5.18;4.40;;;;;;;-148.88;100.00;-17125.47;5034267;28;20116;-86
2023/08/28 10:10:47;;;;;;;6.50;4.70;;;;;;;-148.88;100.00;-17125.47;5032820;28;20029;-85
2023/08/28 10:13:20;;;;;;;10.82;5.80;;;;;;;-148.88;100.00;-17125.47;5033031;28;20499;-86
2023/08/28 10:15:52;;;;;;;5.37;4.83;;;;;;;-148.88;98.98;-17125.47;5032960;28;20026;-84
2023/08/28 10:18:44;;;;;;;6.45;5.07;;;;;;;-148.88;100.00;-17125.47;5034430;28;20029;-85
2023/08/28 10:21:10;;;;;;;6.25;5.00;;;;;;;-148.88;99.33;-17125.47;5032837;28;20211;-84
2023/08/28 10:23:36;;;;;;;6.88;5.25;;;;;;;-148.88;100.00;-17125.47;5033974;28;20049;-85
2023/08/28 10:26:02;;;;;;;5.57;3.60;;;;;;;-148.88;100.00;-17125.47;5033152;28;20105;-86
2023/08/28 10:28:29;;;;;;;5.95;3.13;;;;;;;-148.88;98.97;-17125.47;5033564;28;20484;-86
2023/08/28 10:30:57;;;;;;;3.80;2.88;;;;;;;-148.88;97.24;-17125.47;5034824;28;20021;-86
2023/08/28 10:33:23;;;;;;;3.60;1.50;;;;;;;-148.88;89.82;-17125.47;5017601;28;20029;-88
2023/08/28 10:35:53;;;;;;;4.47;1.40;;;;;;;-148.88;88.90;-17125.47;5033333;28;20085;-89
2023/08/28 10:38:20;;;;;;;5.38;1.70;;;;;;;-148.88;91.94;-17125.47;5037602;28;20032;-86
2023/08/28 10:40:54;;;;;;;3.92;1.60;;;;;;;-148.88;89.05;-17125.47;5033978;28;20017;-88
2023/08/28 10:43:22;;;;;;;3.35;1.30;;;;;;;-148.88;89.90;-17125.47;5042677;28;20032;-88
2023/08/28 10:45:51;;;;;;;2.45;1.02;;;;;;;-148.88;90.51;-17125.47;5049396;28;20113;-87
2023/08/28 10:48:16;;;;;;;3.33;1.50;;;;;;;-148.88;87.86;-17125.47;5049679;28;20021;-87
2023/08/28 10:50:42;;;;;;;5.43;1.33;;;;;;;-148.88;88.10;-17125.47;5035376;28;20032;-87
2023/08/28 10:53:13;;;;;;;3.33;1.30;;;;;;;-148.88;86.00;-17125.47;5034314;28;20448;-86